sensor_id;sensor_type;location;lat;lon;timestamp;P1;durP1;ratioP1;P2;durP2;ratioP2
67768;SDS011;54569;52.018;5.584;2023-11-19T00:02:08;9.13;;;4.80;;
67768;SDS011;54569;52.018;5.584;2023-11-19T00:04:37;8.88;;;4.63;;
67768;SDS011;54569;52.018;5.584;2023-11-19T00:07:04;9.70;;;5.35;;
67768;SDS011;54569;52.018;5.584;2023-11-19T00:09:32;11.13;;;4.90;;
67768;SDS011;54569;52.018;5.584;2023-11-19T00:11:58;10.55;;;4.50;;
67768;SDS011;54569;52.018;5.584;2023-11-19T00:14:25;11.10;;;4.30;;
67768;SDS011;54569;52.018;5.584;2023-11-19T00:16:51;9.60;;;4.10;;
67768;SDS011;54569;52.018;5.584;2023-11-19T00:19:18;14.30;;;4.20;;
67768;SDS011;54569;52.018;5.584;2023-11-19T00:21:44;10.90;;;4.13;;
67768;SDS011;54569;52.018;5.584;2023-11-19T00:24:11;10.68;;;3.80;;
67768;SDS011;54569;52.018;5.584;2023-11-19T00:26:37;12.55;;;4.68;;
67768;SDS011;54569;52.018;5.584;2023-11-19T00:29:03;15.65;;;4.95;;
67768;SDS011;54569;52.018;5.584;2023-11-19T00:31:29;14.63;;;4.43;;
67768;SDS011;54569;52.018;5.584;2023-11-19T00:33:57;15.45;;;4.43;;
67768;SDS011;54569;52.018;5.584;2023-11-19T00:36:22;16.38;;;4.50;;
67768;SDS011;54569;52.018;5.584;2023-11-19T00:38:49;12.70;;;3.90;;
67768;SDS011;54569;52.018;5.584;2023-11-19T00:41:15;16.98;;;4.35;;
67768;SDS011;54569;52.018;5.584;2023-11-19T00:43:43;12.18;;;4.03;;
67768;SDS011;54569;52.018;5.584;2023-11-19T00:46:10;11.38;;;3.45;;
67768;SDS011;54569;52.018;5.584;2023-11-19T00:48:41;12.27;;;3.78;;
67768;SDS011;54569;52.018;5.584;2023-11-19T00:51:07;15.15;;;4.05;;
67768;SDS011;54569;52.018;5.584;2023-11-19T00:53:33;14.60;;;4.07;;
67768;SDS011;54569;52.018;5.584;2023-11-19T00:56:00;15.70;;;4.32;;
67768;SDS011;54569;52.018;5.584;2023-11-19T00:58:25;18.20;;;5.03;;
67768;SDS011;54569;52.018;5.584;2023-11-19T01:00:52;15.13;;;4.03;;
67768;SDS011;54569;52.018;5.584;2023-11-19T01:03:17;17.27;;;4.30;;
67768;SDS011;54569;52.018;5.584;2023-11-19T01:05:43;16.17;;;4.55;;
67768;SDS011;54569;52.018;5.584;2023-11-19T01:08:09;13.50;;;4.30;;
67768;SDS011;54569;52.018;5.584;2023-11-19T01:10:38;16.83;;;4.53;;
67768;SDS011;54569;52.018;5.584;2023-11-19T01:13:04;16.83;;;4.68;;
67768;SDS011;54569;52.018;5.584;2023-11-19T01:15:34;24.55;;;4.57;;
67768;SDS011;54569;52.018;5.584;2023-11-19T01:18:02;16.42;;;3.92;;
67768;SDS011;54569;52.018;5.584;2023-11-19T01:20:31;22.95;;;4.75;;
67768;SDS011;54569;52.018;5.584;2023-11-19T01:22:59;19.73;;;4.35;;
67768;SDS011;54569;52.018;5.584;2023-11-19T01:25:24;22.13;;;3.80;;
67768;SDS011;54569;52.018;5.584;2023-11-19T01:27:50;14.82;;;3.70;;
67768;SDS011;54569;52.018;5.584;2023-11-19T01:30:16;22.38;;;5.07;;
67768;SDS011;54569;52.018;5.584;2023-11-19T01:32:42;14.77;;;3.53;;
67768;SDS011;54569;52.018;5.584;2023-11-19T01:35:07;23.38;;;3.95;;
67768;SDS011;54569;52.018;5.584;2023-11-19T01:37:33;24.00;;;4.63;;
67768;SDS011;54569;52.018;5.584;2023-11-19T01:40:02;17.00;;;3.75;;
67768;SDS011;54569;52.018;5.584;2023-11-19T01:42:39;17.67;;;3.53;;
67768;SDS011;54569;52.018;5.584;2023-11-19T01:45:06;18.52;;;3.95;;
67768;SDS011;54569;52.018;5.584;2023-11-19T01:47:33;18.75;;;3.92;;
67768;SDS011;54569;52.018;5.584;2023-11-19T01:50:01;14.45;;;3.15;;
67768;SDS011;54569;52.018;5.584;2023-11-19T01:52:32;18.42;;;3.95;;
67768;SDS011;54569;52.018;5.584;2023-11-19T01:55:00;19.42;;;4.68;;
67768;SDS011;54569;52.018;5.584;2023-11-19T01:57:26;16.42;;;3.88;;
67768;SDS011;54569;52.018;5.584;2023-11-19T01:59:52;21.63;;;3.50;;
67768;SDS011;54569;52.018;5.584;2023-11-19T02:02:18;16.80;;;3.83;;
67768;SDS011;54569;52.018;5.584;2023-11-19T02:04:49;13.55;;;3.28;;
67768;SDS011;54569;52.018;5.584;2023-11-19T02:07:15;21.13;;;3.95;;
67768;SDS011;54569;52.018;5.584;2023-11-19T02:09:43;18.70;;;3.40;;
67768;SDS011;54569;52.018;5.584;2023-11-19T02:12:09;22.65;;;4.70;;
67768;SDS011;54569;52.018;5.584;2023-11-19T02:14:38;14.57;;;3.70;;
67768;SDS011;54569;52.018;5.584;2023-11-19T02:17:04;19.83;;;3.97;;
67768;SDS011;54569;52.018;5.584;2023-11-19T02:19:30;26.17;;;3.88;;
67768;SDS011;54569;52.018;5.584;2023-11-19T02:21:56;20.95;;;4.00;;
67768;SDS011;54569;52.018;5.584;2023-11-19T02:24:22;19.33;;;3.88;;
67768;SDS011;54569;52.018;5.584;2023-11-19T02:29:25;15.07;;;3.75;;
67768;SDS011;54569;52.018;5.584;2023-11-19T02:31:51;21.25;;;4.13;;
67768;SDS011;54569;52.018;5.584;2023-11-19T02:34:16;23.38;;;4.07;;
67768;SDS011;54569;52.018;5.584;2023-11-19T02:36:42;22.65;;;3.72;;
67768;SDS011;54569;52.018;5.584;2023-11-19T02:39:08;22.60;;;3.83;;
67768;SDS011;54569;52.018;5.584;2023-11-19T02:41:37;21.42;;;4.75;;
67768;SDS011;54569;52.018;5.584;2023-11-19T02:44:05;22.50;;;4.32;;
67768;SDS011;54569;52.018;5.584;2023-11-19T02:46:31;25.30;;;4.75;;
67768;SDS011;54569;52.018;5.584;2023-11-19T02:48:58;26.67;;;5.03;;
67768;SDS011;54569;52.018;5.584;2023-11-19T02:51:23;28.25;;;4.75;;
67768;SDS011;54569;52.018;5.584;2023-11-19T02:53:49;26.27;;;4.18;;
67768;SDS011;54569;52.018;5.584;2023-11-19T02:56:15;20.40;;;4.07;;
67768;SDS011;54569;52.018;5.584;2023-11-19T02:58:45;20.58;;;4.72;;
67768;SDS011;54569;52.018;5.584;2023-11-19T03:01:11;27.00;;;4.82;;
67768;SDS011;54569;52.018;5.584;2023-11-19T03:03:49;28.60;;;5.03;;
67768;SDS011;54569;52.018;5.584;2023-11-19T03:06:19;33.05;;;5.40;;
67768;SDS011;54569;52.018;5.584;2023-11-19T03:08:46;25.33;;;4.85;;
67768;SDS011;54569;52.018;5.584;2023-11-19T03:11:13;29.27;;;5.57;;
67768;SDS011;54569;52.018;5.584;2023-11-19T03:13:39;28.17;;;4.90;;
67768;SDS011;54569;52.018;5.584;2023-11-19T03:16:05;31.17;;;4.95;;
67768;SDS011;54569;52.018;5.584;2023-11-19T03:18:31;30.92;;;5.13;;
67768;SDS011;54569;52.018;5.584;2023-11-19T03:20:57;26.20;;;4.60;;
67768;SDS011;54569;52.018;5.584;2023-11-19T03:23:25;36.30;;;5.30;;
67768;SDS011;54569;52.018;5.584;2023-11-19T03:25:54;33.95;;;5.63;;
67768;SDS011;54569;52.018;5.584;2023-11-19T03:28:20;35.05;;;6.20;;
67768;SDS011;54569;52.018;5.584;2023-11-19T03:30:46;28.63;;;5.57;;
67768;SDS011;54569;52.018;5.584;2023-11-19T03:33:12;35.10;;;5.18;;
67768;SDS011;54569;52.018;5.584;2023-11-19T03:35:37;30.27;;;5.20;;
67768;SDS011;54569;52.018;5.584;2023-11-19T03:38:04;33.40;;;5.20;;
67768;SDS011;54569;52.018;5.584;2023-11-19T03:40:30;26.08;;;5.30;;
67768;SDS011;54569;52.018;5.584;2023-11-19T03:42:56;24.08;;;4.90;;
67768;SDS011;54569;52.018;5.584;2023-11-19T03:45:25;31.83;;;5.45;;
67768;SDS011;54569;52.018;5.584;2023-11-19T03:47:51;30.58;;;5.50;;
67768;SDS011;54569;52.018;5.584;2023-11-19T03:50:16;35.92;;;5.05;;
67768;SDS011;54569;52.018;5.584;2023-11-19T03:52:48;33.75;;;5.05;;
67768;SDS011;54569;52.018;5.584;2023-11-19T03:55:14;28.13;;;4.60;;
67768;SDS011;54569;52.018;5.584;2023-11-19T03:57:40;27.15;;;4.80;;
67768;SDS011;54569;52.018;5.584;2023-11-19T04:00:06;29.95;;;4.68;;
67768;SDS011;54569;52.018;5.584;2023-11-19T04:02:38;27.20;;;5.10;;
67768;SDS011;54569;52.018;5.584;2023-11-19T04:05:04;35.03;;;4.97;;
67768;SDS011;54569;52.018;5.584;2023-11-19T04:07:30;27.45;;;4.93;;
67768;SDS011;54569;52.018;5.584;2023-11-19T04:09:56;29.55;;;5.07;;
67768;SDS011;54569;52.018;5.584;2023-11-19T04:12:22;33.92;;;4.70;;
67768;SDS011;54569;52.018;5.584;2023-11-19T04:14:48;33.13;;;5.35;;
67768;SDS011;54569;52.018;5.584;2023-11-19T04:17:13;29.08;;;4.50;;
67768;SDS011;54569;52.018;5.584;2023-11-19T04:19:39;27.17;;;4.18;;
67768;SDS011;54569;52.018;5.584;2023-11-19T04:22:09;30.65;;;4.43;;
67768;SDS011;54569;52.018;5.584;2023-11-19T04:24:38;22.02;;;4.57;;
67768;SDS011;54569;52.018;5.584;2023-11-19T04:27:05;33.10;;;5.05;;
67768;SDS011;54569;52.018;5.584;2023-11-19T04:29:31;29.83;;;5.53;;
67768;SDS011;54569;52.018;5.584;2023-11-19T04:31:57;27.58;;;5.05;;
67768;SDS011;54569;52.018;5.584;2023-11-19T04:34:24;30.15;;;5.38;;
67768;SDS011;54569;52.018;5.584;2023-11-19T04:36:49;27.65;;;4.80;;
67768;SDS011;54569;52.018;5.584;2023-11-19T04:39:15;29.23;;;5.47;;
67768;SDS011;54569;52.018;5.584;2023-11-19T04:41:50;26.80;;;4.78;;
67768;SDS011;54569;52.018;5.584;2023-11-19T04:44:19;23.00;;;4.18;;
67768;SDS011;54569;52.018;5.584;2023-11-19T04:46:46;32.25;;;4.90;;
67768;SDS011;54569;52.018;5.584;2023-11-19T04:49:12;31.77;;;5.43;;
67768;SDS011;54569;52.018;5.584;2023-11-19T04:51:43;27.77;;;5.00;;
67768;SDS011;54569;52.018;5.584;2023-11-19T04:54:12;23.67;;;5.25;;
67768;SDS011;54569;52.018;5.584;2023-11-19T04:56:38;26.75;;;5.28;;
67768;SDS011;54569;52.018;5.584;2023-11-19T04:59:04;29.77;;;5.88;;
67768;SDS011;54569;52.018;5.584;2023-11-19T05:01:31;26.55;;;5.88;;
67768;SDS011;54569;52.018;5.584;2023-11-19T05:04:03;29.05;;;5.25;;
67768;SDS011;54569;52.018;5.584;2023-11-19T05:06:29;30.90;;;5.43;;
67768;SDS011;54569;52.018;5.584;2023-11-19T05:08:56;32.40;;;5.75;;
67768;SDS011;54569;52.018;5.584;2023-11-19T05:11:26;28.60;;;4.50;;
67768;SDS011;54569;52.018;5.584;2023-11-19T05:13:53;40.90;;;5.13;;
67768;SDS011;54569;52.018;5.584;2023-11-19T05:16:19;32.13;;;5.50;;
67768;SDS011;54569;52.018;5.584;2023-11-19T05:18:46;29.08;;;5.35;;
67768;SDS011;54569;52.018;5.584;2023-11-19T05:21:12;28.52;;;4.88;;
67768;SDS011;54569;52.018;5.584;2023-11-19T05:23:38;30.80;;;5.18;;
67768;SDS011;54569;52.018;5.584;2023-11-19T05:26:04;34.47;;;5.35;;
67768;SDS011;54569;52.018;5.584;2023-11-19T05:28:30;34.00;;;4.75;;
67768;SDS011;54569;52.018;5.584;2023-11-19T05:30:56;33.05;;;4.90;;
67768;SDS011;54569;52.018;5.584;2023-11-19T05:33:21;33.13;;;5.38;;
67768;SDS011;54569;52.018;5.584;2023-11-19T05:35:47;34.25;;;6.00;;
67768;SDS011;54569;52.018;5.584;2023-11-19T05:38:13;27.40;;;3.90;;
67768;SDS011;54569;52.018;5.584;2023-11-19T05:40:39;30.30;;;4.90;;
67768;SDS011;54569;52.018;5.584;2023-11-19T05:43:06;29.75;;;4.70;;
67768;SDS011;54569;52.018;5.584;2023-11-19T05:45:31;32.58;;;5.82;;
67768;SDS011;54569;52.018;5.584;2023-11-19T05:47:57;30.65;;;6.03;;
67768;SDS011;54569;52.018;5.584;2023-11-19T05:50:23;32.13;;;5.55;;
67768;SDS011;54569;52.018;5.584;2023-11-19T05:52:49;30.35;;;5.28;;
67768;SDS011;54569;52.018;5.584;2023-11-19T05:55:15;34.47;;;6.00;;
67768;SDS011;54569;52.018;5.584;2023-11-19T05:57:41;26.23;;;5.15;;
67768;SDS011;54569;52.018;5.584;2023-11-19T06:00:07;29.55;;;4.97;;
67768;SDS011;54569;52.018;5.584;2023-11-19T06:02:36;31.50;;;5.85;;
67768;SDS011;54569;52.018;5.584;2023-11-19T06:05:05;27.73;;;5.65;;
67768;SDS011;54569;52.018;5.584;2023-11-19T06:07:34;32.60;;;5.53;;
67768;SDS011;54569;52.018;5.584;2023-11-19T06:10:02;33.47;;;5.45;;
67768;SDS011;54569;52.018;5.584;2023-11-19T06:12:32;35.47;;;5.82;;
67768;SDS011;54569;52.018;5.584;2023-11-19T06:14:59;31.08;;;5.85;;
67768;SDS011;54569;52.018;5.584;2023-11-19T06:17:25;36.03;;;6.03;;
67768;SDS011;54569;52.018;5.584;2023-11-19T06:19:50;31.85;;;5.28;;
67768;SDS011;54569;52.018;5.584;2023-11-19T06:22:17;41.53;;;6.03;;
67768;SDS011;54569;52.018;5.584;2023-11-19T06:24:43;38.15;;;5.68;;
67768;SDS011;54569;52.018;5.584;2023-11-19T06:27:08;38.00;;;6.32;;
67768;SDS011;54569;52.018;5.584;2023-11-19T06:29:34;32.97;;;6.47;;
67768;SDS011;54569;52.018;5.584;2023-11-19T06:32:00;36.42;;;5.13;;
67768;SDS011;54569;52.018;5.584;2023-11-19T06:34:25;33.95;;;5.40;;
67768;SDS011;54569;52.018;5.584;2023-11-19T06:36:51;32.15;;;6.03;;
67768;SDS011;54569;52.018;5.584;2023-11-19T06:39:18;28.50;;;5.50;;
67768;SDS011;54569;52.018;5.584;2023-11-19T06:41:46;31.20;;;5.18;;
67768;SDS011;54569;52.018;5.584;2023-11-19T06:44:12;31.52;;;5.20;;
67768;SDS011;54569;52.018;5.584;2023-11-19T06:46:38;33.28;;;5.22;;
67768;SDS011;54569;52.018;5.584;2023-11-19T06:49:04;27.08;;;5.07;;
67768;SDS011;54569;52.018;5.584;2023-11-19T06:51:30;41.35;;;5.30;;
67768;SDS011;54569;52.018;5.584;2023-11-19T06:53:56;38.33;;;6.32;;
67768;SDS011;54569;52.018;5.584;2023-11-19T06:56:22;29.90;;;5.53;;
67768;SDS011;54569;52.018;5.584;2023-11-19T06:58:49;32.15;;;5.65;;
67768;SDS011;54569;52.018;5.584;2023-11-19T07:01:16;30.38;;;5.85;;
67768;SDS011;54569;52.018;5.584;2023-11-19T07:03:43;31.05;;;5.05;;
67768;SDS011;54569;52.018;5.584;2023-11-19T07:06:12;34.88;;;5.38;;
67768;SDS011;54569;52.018;5.584;2023-11-19T07:08:39;39.22;;;5.10;;
67768;SDS011;54569;52.018;5.584;2023-11-19T07:11:07;32.85;;;6.00;;
67768;SDS011;54569;52.018;5.584;2023-11-19T07:13:35;35.10;;;6.47;;
67768;SDS011;54569;52.018;5.584;2023-11-19T07:16:02;27.70;;;4.97;;
67768;SDS011;54569;52.018;5.584;2023-11-19T07:18:28;33.85;;;5.13;;
67768;SDS011;54569;52.018;5.584;2023-11-19T07:20:54;31.10;;;5.18;;
67768;SDS011;54569;52.018;5.584;2023-11-19T07:23:20;38.78;;;6.50;;
67768;SDS011;54569;52.018;5.584;2023-11-19T07:25:46;30.60;;;5.38;;
67768;SDS011;54569;52.018;5.584;2023-11-19T07:28:12;29.17;;;5.18;;
67768;SDS011;54569;52.018;5.584;2023-11-19T07:30:38;24.13;;;4.38;;
67768;SDS011;54569;52.018;5.584;2023-11-19T07:33:04;33.65;;;5.32;;
67768;SDS011;54569;52.018;5.584;2023-11-19T07:35:30;29.25;;;4.82;;
67768;SDS011;54569;52.018;5.584;2023-11-19T07:37:56;29.23;;;5.15;;
67768;SDS011;54569;52.018;5.584;2023-11-19T07:40:23;32.97;;;5.32;;
67768;SDS011;54569;52.018;5.584;2023-11-19T07:42:49;29.30;;;5.57;;
67768;SDS011;54569;52.018;5.584;2023-11-19T07:45:15;26.60;;;5.10;;
67768;SDS011;54569;52.018;5.584;2023-11-19T07:47:41;29.55;;;6.20;;
67768;SDS011;54569;52.018;5.584;2023-11-19T07:50:09;28.40;;;5.03;;
67768;SDS011;54569;52.018;5.584;2023-11-19T07:52:35;33.17;;;5.30;;
67768;SDS011;54569;52.018;5.584;2023-11-19T07:55:02;30.98;;;5.05;;
67768;SDS011;54569;52.018;5.584;2023-11-19T07:57:28;30.85;;;5.00;;
67768;SDS011;54569;52.018;5.584;2023-11-19T07:59:56;24.85;;;4.53;;
67768;SDS011;54569;52.018;5.584;2023-11-19T08:02:22;25.45;;;5.32;;
67768;SDS011;54569;52.018;5.584;2023-11-19T08:04:49;29.88;;;6.13;;
67768;SDS011;54569;52.018;5.584;2023-11-19T08:07:17;32.10;;;5.13;;
67768;SDS011;54569;52.018;5.584;2023-11-19T08:09:46;33.75;;;5.93;;
67768;SDS011;54569;52.018;5.584;2023-11-19T08:12:12;29.55;;;4.60;;
67768;SDS011;54569;52.018;5.584;2023-11-19T08:14:39;27.05;;;4.88;;
67768;SDS011;54569;52.018;5.584;2023-11-19T08:17:05;22.20;;;4.30;;
67768;SDS011;54569;52.018;5.584;2023-11-19T08:19:31;25.10;;;4.43;;
67768;SDS011;54569;52.018;5.584;2023-11-19T08:21:57;25.00;;;4.43;;
67768;SDS011;54569;52.018;5.584;2023-11-19T08:24:23;25.80;;;5.20;;
67768;SDS011;54569;52.018;5.584;2023-11-19T08:26:48;25.65;;;5.10;;
67768;SDS011;54569;52.018;5.584;2023-11-19T08:29:14;27.20;;;5.00;;
67768;SDS011;54569;52.018;5.584;2023-11-19T08:31:39;32.80;;;5.47;;
67768;SDS011;54569;52.018;5.584;2023-11-19T08:34:05;25.75;;;4.53;;
67768;SDS011;54569;52.018;5.584;2023-11-19T08:36:34;21.65;;;4.93;;
67768;SDS011;54569;52.018;5.584;2023-11-19T08:39:00;22.52;;;5.47;;
67768;SDS011;54569;52.018;5.584;2023-11-19T08:41:26;29.20;;;4.85;;
67768;SDS011;54569;52.018;5.584;2023-11-19T08:43:52;29.05;;;5.32;;
67768;SDS011;54569;52.018;5.584;2023-11-19T08:46:18;25.17;;;4.30;;
67768;SDS011;54569;52.018;5.584;2023-11-19T08:48:43;29.15;;;5.15;;
67768;SDS011;54569;52.018;5.584;2023-11-19T08:51:09;25.40;;;4.85;;
67768;SDS011;54569;52.018;5.584;2023-11-19T08:53:35;29.48;;;5.38;;
67768;SDS011;54569;52.018;5.584;2023-11-19T08:56:01;27.80;;;5.68;;
67768;SDS011;54569;52.018;5.584;2023-11-19T08:58:28;21.17;;;5.38;;
67768;SDS011;54569;52.018;5.584;2023-11-19T09:00:53;31.48;;;5.10;;
67768;SDS011;54569;52.018;5.584;2023-11-19T09:03:19;17.45;;;4.32;;
67768;SDS011;54569;52.018;5.584;2023-11-19T09:05:45;22.48;;;5.22;;
67768;SDS011;54569;52.018;5.584;2023-11-19T09:08:11;22.67;;;4.55;;
67768;SDS011;54569;52.018;5.584;2023-11-19T09:10:37;23.42;;;4.03;;
67768;SDS011;54569;52.018;5.584;2023-11-19T09:13:03;21.70;;;4.93;;
67768;SDS011;54569;52.018;5.584;2023-11-19T09:15:29;31.17;;;4.97;;
67768;SDS011;54569;52.018;5.584;2023-11-19T09:17:54;26.00;;;4.75;;
67768;SDS011;54569;52.018;5.584;2023-11-19T09:20:21;31.10;;;5.43;;
67768;SDS011;54569;52.018;5.584;2023-11-19T09:22:46;28.13;;;3.88;;
67768;SDS011;54569;52.018;5.584;2023-11-19T09:25:12;24.33;;;4.43;;
67768;SDS011;54569;52.018;5.584;2023-11-19T09:27:42;24.38;;;4.65;;
67768;SDS011;54569;52.018;5.584;2023-11-19T09:30:10;30.42;;;4.57;;
67768;SDS011;54569;52.018;5.584;2023-11-19T09:32:36;25.20;;;5.10;;
67768;SDS011;54569;52.018;5.584;2023-11-19T09:35:03;26.20;;;4.90;;
67768;SDS011;54569;52.018;5.584;2023-11-19T09:37:29;24.80;;;4.75;;
67768;SDS011;54569;52.018;5.584;2023-11-19T09:39:54;21.60;;;5.22;;
67768;SDS011;54569;52.018;5.584;2023-11-19T09:42:20;27.60;;;5.60;;
67768;SDS011;54569;52.018;5.584;2023-11-19T09:44:46;27.48;;;5.28;;
67768;SDS011;54569;52.018;5.584;2023-11-19T09:47:12;29.95;;;5.38;;
67768;SDS011;54569;52.018;5.584;2023-11-19T09:49:39;26.08;;;5.47;;
67768;SDS011;54569;52.018;5.584;2023-11-19T09:52:05;25.33;;;5.20;;
67768;SDS011;54569;52.018;5.584;2023-11-19T09:54:31;25.75;;;5.38;;
67768;SDS011;54569;52.018;5.584;2023-11-19T09:56:57;27.42;;;4.95;;
67768;SDS011;54569;52.018;5.584;2023-11-19T09:59:28;24.30;;;5.18;;
67768;SDS011;54569;52.018;5.584;2023-11-19T10:01:54;28.60;;;4.88;;
67768;SDS011;54569;52.018;5.584;2023-11-19T10:04:21;23.98;;;4.60;;
67768;SDS011;54569;52.018;5.584;2023-11-19T10:06:49;28.55;;;5.00;;
67768;SDS011;54569;52.018;5.584;2023-11-19T10:09:16;27.13;;;4.30;;
67768;SDS011;54569;52.018;5.584;2023-11-19T10:11:42;25.27;;;5.50;;
67768;SDS011;54569;52.018;5.584;2023-11-19T10:14:08;29.13;;;4.95;;
67768;SDS011;54569;52.018;5.584;2023-11-19T10:16:34;23.17;;;4.38;;
67768;SDS011;54569;52.018;5.584;2023-11-19T10:19:01;26.42;;;5.75;;
67768;SDS011;54569;52.018;5.584;2023-11-19T10:21:27;27.33;;;5.15;;
67768;SDS011;54569;52.018;5.584;2023-11-19T10:23:55;28.48;;;4.78;;
67768;SDS011;54569;52.018;5.584;2023-11-19T10:26:25;27.90;;;5.18;;
67768;SDS011;54569;52.018;5.584;2023-11-19T10:28:52;21.98;;;4.28;;
67768;SDS011;54569;52.018;5.584;2023-11-19T10:31:18;21.83;;;4.95;;
67768;SDS011;54569;52.018;5.584;2023-11-19T10:33:49;24.17;;;5.22;;
67768;SDS011;54569;52.018;5.584;2023-11-19T10:36:16;32.03;;;5.75;;
67768;SDS011;54569;52.018;5.584;2023-11-19T10:38:51;21.75;;;4.72;;
67768;SDS011;54569;52.018;5.584;2023-11-19T10:41:27;24.70;;;5.03;;
67768;SDS011;54569;52.018;5.584;2023-11-19T10:43:57;25.00;;;4.70;;
67768;SDS011;54569;52.018;5.584;2023-11-19T10:46:23;23.35;;;4.60;;
67768;SDS011;54569;52.018;5.584;2023-11-19T10:49:08;17.83;;;3.95;;
67768;SDS011;54569;52.018;5.584;2023-11-19T10:51:34;24.67;;;4.95;;
67768;SDS011;54569;52.018;5.584;2023-11-19T10:54:02;20.48;;;4.95;;
67768;SDS011;54569;52.018;5.584;2023-11-19T10:56:31;24.95;;;4.60;;
67768;SDS011;54569;52.018;5.584;2023-11-19T10:58:58;22.65;;;5.05;;
67768;SDS011;54569;52.018;5.584;2023-11-19T11:01:26;23.92;;;5.05;;
67768;SDS011;54569;52.018;5.584;2023-11-19T11:03:59;19.33;;;4.82;;
67768;SDS011;54569;52.018;5.584;2023-11-19T11:06:28;23.23;;;5.07;;
67768;SDS011;54569;52.018;5.584;2023-11-19T11:08:55;23.77;;;4.85;;
67768;SDS011;54569;52.018;5.584;2023-11-19T11:11:21;24.77;;;4.88;;
67768;SDS011;54569;52.018;5.584;2023-11-19T11:13:48;21.73;;;5.18;;
67768;SDS011;54569;52.018;5.584;2023-11-19T11:16:17;20.50;;;4.70;;
67768;SDS011;54569;52.018;5.584;2023-11-19T11:18:44;30.80;;;5.63;;
67768;SDS011;54569;52.018;5.584;2023-11-19T11:21:15;22.45;;;4.57;;
67768;SDS011;54569;52.018;5.584;2023-11-19T11:24:06;22.13;;;4.72;;
67768;SDS011;54569;52.018;5.584;2023-11-19T11:40:34;26.30;;;4.90;;
67768;SDS011;54569;52.018;5.584;2023-11-19T11:43:01;24.15;;;5.47;;
67768;SDS011;54569;52.018;5.584;2023-11-19T11:45:39;23.20;;;4.78;;
67768;SDS011;54569;52.018;5.584;2023-11-19T11:48:09;28.83;;;5.65;;
67768;SDS011;54569;52.018;5.584;2023-11-19T11:50:36;25.58;;;5.03;;
67768;SDS011;54569;52.018;5.584;2023-11-19T11:53:13;24.58;;;4.68;;
67768;SDS011;54569;52.018;5.584;2023-11-19T11:58:18;29.48;;;4.43;;
67768;SDS011;54569;52.018;5.584;2023-11-19T12:01:04;22.08;;;4.80;;
67768;SDS011;54569;52.018;5.584;2023-11-19T12:03:33;18.55;;;3.88;;
67768;SDS011;54569;52.018;5.584;2023-11-19T12:05:59;23.33;;;3.58;;
67768;SDS011;54569;52.018;5.584;2023-11-19T12:08:26;16.50;;;3.67;;
67768;SDS011;54569;52.018;5.584;2023-11-19T12:10:54;19.75;;;4.18;;
67768;SDS011;54569;52.018;5.584;2023-11-19T12:13:23;20.05;;;4.28;;
67768;SDS011;54569;52.018;5.584;2023-11-19T12:18:21;16.85;;;3.45;;
67768;SDS011;54569;52.018;5.584;2023-11-19T12:20:57;17.45;;;4.18;;
67768;SDS011;54569;52.018;5.584;2023-11-19T12:23:30;19.50;;;2.80;;
67768;SDS011;54569;52.018;5.584;2023-11-19T12:25:59;18.20;;;3.60;;
67768;SDS011;54569;52.018;5.584;2023-11-19T12:28:25;18.52;;;3.67;;
67768;SDS011;54569;52.018;5.584;2023-11-19T12:30:53;16.08;;;3.33;;
67768;SDS011;54569;52.018;5.584;2023-11-19T12:33:32;20.92;;;4.28;;
67768;SDS011;54569;52.018;5.584;2023-11-19T12:35:57;18.95;;;4.18;;
67768;SDS011;54569;52.018;5.584;2023-11-19T12:38:24;20.33;;;3.88;;
67768;SDS011;54569;52.018;5.584;2023-11-19T12:41:03;20.27;;;3.97;;
67768;SDS011;54569;52.018;5.584;2023-11-19T12:43:34;20.63;;;4.50;;
67768;SDS011;54569;52.018;5.584;2023-11-19T12:46:01;19.13;;;3.88;;
67768;SDS011;54569;52.018;5.584;2023-11-19T12:48:26;18.65;;;4.00;;
67768;SDS011;54569;52.018;5.584;2023-11-19T12:50:56;20.20;;;3.85;;
67768;SDS011;54569;52.018;5.584;2023-11-19T12:53:24;21.70;;;4.30;;
67768;SDS011;54569;52.018;5.584;2023-11-19T12:55:51;20.27;;;4.50;;
67768;SDS011;54569;52.018;5.584;2023-11-19T12:58:33;14.48;;;3.63;;
67768;SDS011;54569;52.018;5.584;2023-11-19T13:01:04;23.07;;;5.17;;
67768;SDS011;54569;52.018;5.584;2023-11-19T13:03:32;23.85;;;4.22;;
67768;SDS011;54569;52.018;5.584;2023-11-19T13:08:39;20.73;;;3.63;;
67768;SDS011;54569;52.018;5.584;2023-11-19T13:11:07;24.65;;;5.28;;
67768;SDS011;54569;52.018;5.584;2023-11-19T13:13:33;21.73;;;3.85;;
67768;SDS011;54569;52.018;5.584;2023-11-19T13:16:17;16.13;;;3.97;;
67768;SDS011;54569;52.018;5.584;2023-11-19T13:18:44;21.77;;;4.70;;
67768;SDS011;54569;52.018;5.584;2023-11-19T13:21:09;22.30;;;4.47;;
67768;SDS011;54569;52.018;5.584;2023-11-19T13:23:35;21.30;;;4.38;;
67768;SDS011;54569;52.018;5.584;2023-11-19T13:26:01;21.80;;;4.65;;
67768;SDS011;54569;52.018;5.584;2023-11-19T13:28:29;20.98;;;4.72;;
67768;SDS011;54569;52.018;5.584;2023-11-19T13:30:54;22.95;;;4.35;;
67768;SDS011;54569;52.018;5.584;2023-11-19T13:33:20;20.80;;;4.72;;
67768;SDS011;54569;52.018;5.584;2023-11-19T13:35:45;21.77;;;3.97;;
67768;SDS011;54569;52.018;5.584;2023-11-19T13:38:11;25.48;;;4.95;;
67768;SDS011;54569;52.018;5.584;2023-11-19T13:40:37;23.48;;;4.18;;
67768;SDS011;54569;52.018;5.584;2023-11-19T13:43:04;21.85;;;4.65;;
67768;SDS011;54569;52.018;5.584;2023-11-19T13:45:30;22.55;;;4.55;;
67768;SDS011;54569;52.018;5.584;2023-11-19T13:47:55;28.88;;;5.25;;
67768;SDS011;54569;52.018;5.584;2023-11-19T13:50:21;26.30;;;3.85;;
67768;SDS011;54569;52.018;5.584;2023-11-19T13:52:48;21.05;;;4.00;;
67768;SDS011;54569;52.018;5.584;2023-11-19T13:55:13;20.17;;;4.07;;
67768;SDS011;54569;52.018;5.584;2023-11-19T13:57:40;16.48;;;3.33;;
67768;SDS011;54569;52.018;5.584;2023-11-19T14:00:07;19.35;;;3.67;;
67768;SDS011;54569;52.018;5.584;2023-11-19T14:02:45;18.13;;;3.92;;
67768;SDS011;54569;52.018;5.584;2023-11-19T14:05:12;17.30;;;3.95;;
67768;SDS011;54569;52.018;5.584;2023-11-19T14:07:39;16.80;;;3.38;;
67768;SDS011;54569;52.018;5.584;2023-11-19T14:10:05;19.45;;;4.47;;
67768;SDS011;54569;52.018;5.584;2023-11-19T14:12:32;20.35;;;3.83;;
67768;SDS011;54569;52.018;5.584;2023-11-19T14:14:58;16.08;;;3.17;;
67768;SDS011;54569;52.018;5.584;2023-11-19T14:17:25;15.02;;;3.92;;
67768;SDS011;54569;52.018;5.584;2023-11-19T14:19:51;23.42;;;4.30;;
67768;SDS011;54569;52.018;5.584;2023-11-19T14:22:16;22.45;;;4.57;;
67768;SDS011;54569;52.018;5.584;2023-11-19T14:24:42;19.85;;;4.22;;
67768;SDS011;54569;52.018;5.584;2023-11-19T14:27:10;23.83;;;4.53;;
67768;SDS011;54569;52.018;5.584;2023-11-19T14:29:36;18.40;;;3.95;;
67768;SDS011;54569;52.018;5.584;2023-11-19T14:32:03;24.30;;;4.38;;
67768;SDS011;54569;52.018;5.584;2023-11-19T14:34:29;25.10;;;4.38;;
67768;SDS011;54569;52.018;5.584;2023-11-19T14:36:56;23.38;;;3.78;;
67768;SDS011;54569;52.018;5.584;2023-11-19T14:39:21;23.05;;;3.30;;
67768;SDS011;54569;52.018;5.584;2023-11-19T14:41:47;19.77;;;3.72;;
67768;SDS011;54569;52.018;5.584;2023-11-19T14:44:14;15.98;;;4.22;;
67768;SDS011;54569;52.018;5.584;2023-11-19T14:46:40;19.75;;;4.50;;
67768;SDS011;54569;52.018;5.584;2023-11-19T14:49:06;13.25;;;3.88;;
67768;SDS011;54569;52.018;5.584;2023-11-19T14:51:36;16.05;;;4.10;;
67768;SDS011;54569;52.018;5.584;2023-11-19T14:54:03;17.42;;;5.22;;
67768;SDS011;54569;52.018;5.584;2023-11-19T14:56:29;18.65;;;3.45;;
67768;SDS011;54569;52.018;5.584;2023-11-19T14:58:55;21.38;;;3.90;;
67768;SDS011;54569;52.018;5.584;2023-11-19T15:01:21;21.40;;;4.10;;